Latest Weather Observations for Grove

IDT60901

Issued at 8:31 am EST Wednesday 15 July 2020 (issued every 10 minutes, with the page automatically refreshed every 10 minutes)

About weather observations | Map of Hobart area stations | Latest observations for Hobart area | Other Formats
Station Details ID: 094220 Name: GROVE (RESEARCH STATION) Lat: -42.99 Lon: 147.07 Height: 65.0 m
Data from the previous 72 hours. | See also: Recent months at Grove
Date/Time
EST
Temp
°C
App
Temp
°C
Dew
Point
°C
Rel
Hum
%
Delta-T
°C
Wind Press
QNH
hPa
Press
MSL
hPa
Rain since
9am
mm
Dir  Spd
km/h
Gust
km/h
Spd
kts
Gust
kts
15/08:30am 4.6 3.3 3.9 95 0.3 CALM 0 4 0 2 - - 0.0
15/08:00am 4.5 2.8 3.8 95 0.3 N 2 6 1 3 - - 0.0
15/07:30am 4.3 2.9 3.8 97 0.2 CALM 0 0 0 0 - - 0.0
15/07:00am 4.4 3.0 3.7 95 0.3 CALM 0 0 0 0 - - 0.0
15/06:30am 4.4 3.0 3.7 95 0.3 CALM 0 0 0 0 - - 0.0
15/06:00am 4.4 2.3 3.7 95 0.3 N 4 7 2 4 - - 0.0
15/05:30am 4.4 2.3 3.9 97 0.2 ENE 4 6 2 3 - - 0.0
15/05:00am 4.3 2.9 3.8 97 0.2 CALM 0 0 0 0 - - 0.0
15/04:30am 4.4 3.1 3.9 97 0.2 CALM 0 0 0 0 - - 0.0
15/04:00am 4.4 3.1 3.9 97 0.2 CALM 0 0 0 0 - - 0.0
15/03:30am 4.5 3.1 3.8 95 0.3 CALM 0 0 0 0 - - 0.0
15/03:00am 4.5 3.1 3.8 95 0.3 CALM 0 0 0 0 - - 0.0
15/02:30am 4.5 3.1 3.8 95 0.3 CALM 0 0 0 0 - - 0.0
15/02:00am 4.5 3.1 3.5 93 0.4 CALM 0 0 0 0 - - 0.0
15/01:30am 4.5 3.1 3.8 95 0.3 CALM 0 0 0 0 - - 0.0
15/01:00am 4.5 3.1 3.8 95 0.3 CALM 0 0 0 0 - - 0.0
15/12:30am 4.4 3.0 3.7 95 0.3 CALM 0 0 0 0 - - 0.0
15/12:00am 4.4 3.0 3.7 95 0.3 CALM 0 0 0 0 - - 0.0
 
Date/Time
EST
Temp
°C
App
Temp
°C
Dew
Point
°C
Rel
Hum
%
Delta-T
°C
Wind Press
QNH
hPa
Press
MSL
hPa
Rain since
9am
mm
Dir  Spd
km/h
Gust
km/h
Spd
kts
Gust
kts
14/11:30pm 4.4 3.0 3.4 93 0.4 CALM 0 0 0 0 - - 0.0
14/11:00pm 4.4 1.8 3.4 93 0.4 NNE 6 7 3 4 - - 0.0
14/10:30pm 4.3 1.8 3.6 95 0.3 N 6 7 3 4 - - 0.0
14/10:00pm 4.5 2.0 3.5 93 0.4 NE 6 7 3 4 - - 0.0
14/09:30pm 4.8 2.3 3.8 93 0.4 N 6 7 3 4 - - 0.0
14/09:00pm 5.2 2.7 3.8 91 0.6 NE 6 7 3 4 - - 0.0
14/08:30pm 5.3 2.5 3.4 87 0.8 ENE 7 9 4 5 - - 0.0
14/08:00pm 5.4 3.4 4.5 94 0.4 NE 4 6 2 3 - - 0.0
14/07:30pm 5.5 3.2 4.6 94 0.4 ENE 6 9 3 5 - - 0.0
14/07:00pm 5.6 4.5 4.9 95 0.3 CALM 0 0 0 0 - - 0.0
14/06:30pm 5.9 3.6 5.0 94 0.4 ENE 6 7 3 4 - - 0.0
14/06:00pm 5.9 4.8 5.0 94 0.4 CALM 0 0 0 0 - - 0.0
14/05:30pm 6.0 3.8 5.1 94 0.4 N 6 7 3 4 - - 0.0
14/05:00pm 6.1 4.9 4.7 91 0.6 CALM 0 0 0 0 - - 0.0
14/04:30pm 6.2 5.0 4.6 89 0.7 CALM 0 0 0 0 - - 0.0
14/04:00pm 6.5 5.3 4.4 86 0.9 CALM 0 0 0 0 - - 0.0
14/03:30pm 6.9 5.2 4.1 82 1.2 WSW 2 11 1 6 - - 0.0
14/03:00pm 7.9 6.8 5.2 83 1.2 CALM 0 0 0 0 - - 0.0
14/02:30pm 9.5 8.2 4.1 69 2.4 CALM 0 0 0 0 - - 0.0
14/02:00pm 8.8 6.1 3.7 70 2.2 W 7 9 4 5 - - 0.0
14/01:30pm 8.4 5.9 3.5 71 2.1 W 6 7 3 4 - - 0.0
14/01:00pm 8.7 7.2 3.1 68 2.4 CALM 0 0 0 0 - - 0.0
14/12:30pm 6.7 4.1 3.1 78 1.5 WSW 6 9 3 5 - - 0.0
14/12:00pm 6.7 5.3 3.4 79 1.4 CALM 0 0 0 0 - - 0.0
14/11:30am 6.0 4.5 3.1 82 1.2 CALM 0 0 0 0 - - 0.0
14/11:00am 5.0 3.6 3.6 91 0.6 CALM 0 6 0 3 - - 0.0
14/10:30am 3.7 2.2 3.0 95 0.3 CALM 0 4 0 2 - - 0.0
14/10:00am 2.5 0.9 2.2 98 0.1 CALM 0 0 0 0 - - 0.0
14/09:30am 1.9 0.2 1.6 98 0.1 CALM 0 0 0 0 - - 0.0
14/09:00am 1.2 -0.6 1.2 100 0.0 CALM 0 0 0 0 - - 0.2
14/08:30am 1.0 -1.0 -0.1 92 0.4 CALM 0 0 0 0 - - 0.2
14/08:00am 0.6 - - - - CALM 0 0 0 0 - - 0.2
14/07:30am 0.5 - - - - CALM 0 0 0 0 - - 0.0
14/07:00am 0.4 - - - - CALM 0 0 0 0 - - 0.0
14/06:30am 0.2 - - - - CALM 0 0 0 0 - - 0.0
14/06:00am 0.1 - - - - NNE 4 7 2 4 - - 0.0
14/05:30am 0.0 - - - - NNE 6 7 3 4 - - 0.0
14/05:00am 0.1 - - - - WNW 2 6 1 3 - - 0.0
14/04:30am 0.0 - - - - WSW 2 6 1 3 - - 0.0
14/04:00am -0.1 - - - - SW 6 7 3 4 - - 0.0
14/03:30am -0.1 - - - - NNE 6 7 3 4 - - 0.0
14/03:00am -0.4 - - - - NNE 4 9 2 5 - - 0.0
14/02:30am -0.5 - - - - CALM 0 0 0 0 - - 0.0
14/02:00am -0.7 - - - - CALM 0 0 0 0 - - 0.0
14/01:30am -1.3 - - - - CALM 0 0 0 0 - - 0.0
14/01:00am -1.5 - - - - CALM 0 2 0 1 - - 0.0
14/12:30am -1.6 - - - - N 4 6 2 3 - - 0.0
14/12:00am -1.8 - - - - CALM 0 0 0 0 - - 0.0
 
Date/Time
EST
Temp
°C
App
Temp
°C
Dew
Point
°C
Rel
Hum
%
Delta-T
°C
Wind Press
QNH
hPa
Press
MSL
hPa
Rain since
9am
mm
Dir  Spd
km/h
Gust
km/h
Spd
kts
Gust
kts
13/11:30pm -1.7 - - - - CALM 0 0 0 0 - - 0.0
13/11:00pm -1.2 - - - - CALM 0 0 0 0 - - 0.0
13/10:30pm -0.7 - - - - NE 6 7 3 4 - - 0.0
13/10:00pm -1.0 - - - - CALM 0 7 0 4 - - 0.0
13/09:30pm -0.4 - - - - N 2 7 1 4 - - 0.0
13/09:00pm -0.8 - - - - NNE 6 7 3 4 - - 0.0
13/08:30pm 0.4 -1.5 0.4 100 0.0 CALM 0 0 0 0 - - 0.0
13/08:00pm 0.5 -1.5 0.2 98 0.1 CALM 0 0 0 0 - - 0.0
13/07:30pm 1.0 -2.1 -0.1 92 0.4 N 6 7 3 4 - - 0.0
13/07:00pm 1.7 -1.3 0.9 94 0.3 NNE 6 9 3 5 - - 0.0
13/06:30pm 2.3 -0.6 1.5 94 0.3 NNE 6 6 3 3 - - 0.0
13/06:00pm 3.2 1.6 2.7 96 0.2 CALM 0 0 0 0 - - 0.0
13/05:30pm 4.1 2.7 3.4 95 0.3 CALM 0 0 0 0 - - 0.0
13/05:00pm 5.3 4.0 4.1 92 0.5 CALM 0 0 0 0 - - 0.0
13/04:30pm 7.1 4.5 4.1 81 1.3 WNW 7 11 4 6 - - 0.0
13/04:00pm 9.1 6.1 4.1 71 2.2 W 9 13 5 7 - - 0.0
13/03:30pm 11.0 8.4 4.3 63 3.0 NNW 7 11 4 6 - - 0.0
13/03:00pm 11.9 10.3 4.7 61 3.3 N 2 6 1 3 - - 0.0
13/02:30pm 11.3 10.2 5.0 65 2.9 CALM 0 0 0 0 - - 0.0
13/02:00pm 11.1 9.9 4.7 64 2.9 CALM 0 6 0 3 - - 0.0
13/01:30pm 10.6 9.1 5.1 69 2.5 W 2 6 1 3 - - 0.0
13/01:00pm 8.0 7.1 6.0 87 0.9 CALM 0 0 0 0 - - 0.0
13/12:30pm 6.3 5.3 5.6 95 0.3 CALM 0 0 0 0 - - 0.0
13/12:00pm 4.8 3.6 4.8 100 0.0 CALM 0 0 0 0 - - 0.0
13/11:30am 3.4 2.0 3.4 100 0.0 CALM 0 0 0 0 - - 0.0
13/11:00am 3.0 1.1 2.8 99 0.1 WSW 2 7 1 4 - - 0.0
13/10:30am 2.3 0.6 2.0 98 0.1 CALM 0 0 0 0 - - 0.0
13/10:00am 1.4 -0.4 1.1 98 0.1 CALM 0 0 0 0 - - 0.0
13/09:30am 0.6 -1.3 0.6 100 0.0 CALM 0 0 0 0 - - 0.0
13/09:00am 0.4 -1.5 0.4 100 0.0 CALM 0 0 0 0 - - 0.4
13/08:30am 0.2 - - - - ENE 4 7 2 4 - - 0.4
13/08:00am 0.4 -2.7 0.4 100 0.0 N 6 6 3 3 - - 0.4
13/07:30am 0.6 -2.6 0.6 100 0.0 NE 7 11 4 6 - - 0.4
13/07:00am 0.8 -2.4 0.8 100 0.0 ENE 7 9 4 5 - - 0.4
13/06:30am 0.9 -2.1 0.9 100 0.0 NNE 6 7 3 4 - - 0.4
13/06:00am 0.8 -1.4 0.8 100 0.0 ENE 2 7 1 4 - - 0.4
13/05:30am 0.8 -1.1 0.8 100 0.0 CALM 0 0 0 0 - - 0.4
13/05:00am 0.6 -1.7 0.6 100 0.0 ENE 2 6 1 3 - - 0.4
13/04:30am 0.4 -2.3 0.4 100 0.0 ENE 4 7 2 4 - - 0.4
13/04:00am 0.2 - - - - NNE 4 7 2 4 - - 0.4
13/03:30am 0.0 - - - - NNE 6 7 3 4 - - 0.4
13/03:00am -0.1 - - - - CALM 0 4 0 2 - - 0.4
13/02:30am 0.2 - - - - N 6 7 3 4 - - 0.4
13/02:00am 0.6 -2.6 0.6 100 0.0 NNE 7 9 4 5 - - 0.4
13/01:30am 0.7 -2.3 0.7 100 0.0 NE 6 7 3 4 - - 0.4
13/01:00am 0.5 -1.4 0.5 100 0.0 CALM 0 0 0 0 - - 0.4
13/12:30am 0.6 -1.3 0.6 100 0.0 CALM 0 6 0 3 - - 0.4
13/12:00am 1.0 -1.3 0.7 98 0.1 NE 2 6 1 3 - - 0.4
 
Date/Time
EST
Temp
°C
App
Temp
°C
Dew
Point
°C
Rel
Hum
%
Delta-T
°C
Wind Press
QNH
hPa
Press
MSL
hPa
Rain since
9am
mm
Dir  Spd
km/h
Gust
km/h
Spd
kts
Gust
kts
12/11:30pm 1.4 -1.7 1.4 100 0.0 ENE 7 9 4 5 - - 0.4
12/11:00pm 1.3 -1.7 0.8 96 0.2 NE 6 7 3 4 - - 0.4
12/10:30pm 1.6 -1.3 1.3 98 0.1 NNE 6 6 3 3 - - 0.4
12/10:00pm 2.4 -0.4 2.1 98 0.1 NE 6 7 3 4 - - 0.4
12/09:30pm 2.5 0.9 2.2 98 0.1 CALM 0 0 0 0 - - 0.4
12/09:00pm 2.4 0.7 2.1 98 0.1 CALM 0 0 0 0 - - 0.4
12/08:30pm 2.6 1.0 2.6 100 0.0 CALM 0 0 0 0 - - 0.4
12/08:00pm 3.4 0.8 3.2 99 0.1 E 6 9 3 5 - - 0.4
12/07:30pm 4.9 3.3 4.7 99 0.1 N 2 6 1 3 - - 0.4
12/07:00pm 5.4 3.5 4.9 97 0.2 ENE 4 6 2 3 - - 0.4
12/06:30pm 5.7 4.7 5.5 99 0.1 CALM 0 0 0 0 - - 0.4
12/06:00pm 5.4 3.9 4.9 97 0.2 NE 2 6 1 3 - - 0.4
12/05:30pm 5.5 4.4 5.3 99 0.1 CALM 0 0 0 0 - - 0.4
12/05:00pm 6.4 5.4 5.5 94 0.4 CALM 0 0 0 0 - - 0.4
12/04:30pm 7.2 5.2 6.3 94 0.4 ENE 6 6 3 3 - - 0.4
12/04:00pm 8.5 6.6 6.8 89 0.8 ENE 6 6 3 3 - - 0.4
12/03:30pm 9.3 7.4 6.5 83 1.3 NE 6 7 3 4 - - 0.4
12/03:00pm 9.7 7.6 6.7 81 1.4 E 7 9 4 5 - - 0.4
12/02:30pm 9.5 7.0 6.5 81 1.4 NNE 9 11 5 6 - - 0.4
12/02:00pm 9.3 7.4 7.4 88 0.9 NNE 7 9 4 5 - - 0.4
12/01:30pm 9.0 8.5 7.7 91 0.6 CALM 0 0 0 0 - - 0.4
12/01:00pm 9.1 8.1 7.4 89 0.8 SSW 2 6 1 3 - - 0.2
12/12:30pm 9.0 6.6 7.1 88 0.9 S 9 13 5 7 - - 0.0
12/12:00pm 9.2 6.9 7.5 89 0.8 S 9 13 5 7 - - 0.0
12/11:30am 9.0 7.3 7.5 90 0.7 SSW 6 9 3 5 - - 0.0
12/11:00am 8.6 8.1 7.8 95 0.4 CALM 0 0 0 0 - - 0.0
12/10:30am 7.9 7.3 7.5 97 0.2 CALM 0 0 0 0 - - 0.0
12/10:00am 7.5 6.9 7.3 99 0.1 CALM 0 0 0 0 - - 0.0
12/09:30am 7.2 6.5 7.0 99 0.1 CALM 0 0 0 0 - - 0.0
12/09:00am 6.7 5.9 6.5 99 0.1 CALM 0 0 0 0 - - 0.4

Latest Capital City Observations: Canberra | Sydney | Melbourne | Brisbane | Adelaide | Perth | Hobart | Darwin

Other formats

Comma delimited format used in spreadsheet applications
http://www.bom.gov.au/fwo/IDT60901/IDT60901.95977.axf

JavaScript Object Notation format (JSON) in row-major order
http://www.bom.gov.au/fwo/IDT60901/IDT60901.95977.json

Data quality

Most of these data are generated automatically and are frequently updated. Quality checks on data are not normally performed. It is possible for incorrect values to appear. Refer to information at About Latest Weather Observations and please check the disclaimer before using these data.